createdAt,value
2022-08-02T00:03:13.906Z,20.04
2022-08-02T00:06:10.826Z,20.00
2022-08-02T00:09:07.405Z,19.98
2022-08-02T00:12:05.077Z,19.97
2022-08-02T00:15:03.210Z,19.96
2022-08-02T00:18:01.080Z,19.99
2022-08-02T00:21:01.135Z,19.98
2022-08-02T00:24:28.900Z,19.97
2022-08-02T00:27:16.915Z,19.99
2022-08-02T00:30:13.675Z,19.98
2022-08-02T00:33:10.133Z,19.91
2022-08-02T00:36:06.976Z,19.91
2022-08-02T00:39:02.831Z,19.87
2022-08-02T00:41:59.910Z,19.84
2022-08-02T00:44:56.853Z,19.80
2022-08-02T00:48:09.156Z,19.72
2022-08-02T00:51:06.059Z,19.70
2022-08-02T00:54:13.258Z,19.65
2022-08-02T00:57:10.900Z,19.63
2022-08-02T01:00:07.795Z,19.62
2022-08-02T01:03:04.885Z,19.58
2022-08-02T01:06:11.548Z,19.57
2022-08-02T01:09:07.835Z,19.57
2022-08-02T01:12:08.233Z,19.56
2022-08-02T01:15:06.114Z,19.56
2022-08-02T01:18:05.875Z,19.50
2022-08-02T01:21:02.967Z,19.43
2022-08-02T01:24:00.169Z,19.38
2022-08-02T01:26:57.465Z,19.34
2022-08-02T01:29:54.074Z,19.32
2022-08-02T01:32:52.114Z,19.30
2022-08-02T01:35:50.689Z,19.30
2022-08-02T01:38:48.796Z,19.33
2022-08-02T01:41:45.877Z,19.35
2022-08-02T01:44:42.713Z,19.33
2022-08-02T01:47:39.675Z,19.29
2022-08-02T01:50:36.700Z,19.30
2022-08-02T01:53:32.683Z,19.30
2022-08-02T01:56:30.031Z,19.32
2022-08-02T01:59:27.570Z,19.32
2022-08-02T02:02:23.765Z,19.28
2022-08-02T02:05:20.867Z,19.26
2022-08-02T02:08:27.448Z,19.22
2022-08-02T02:12:09.529Z,19.22
2022-08-02T02:14:51.742Z,19.24
2022-08-02T02:18:12.458Z,19.24
2022-08-02T02:21:07.974Z,19.25
2022-08-02T02:24:05.937Z,19.26
2022-08-02T02:27:08.706Z,19.26
2022-08-02T02:30:05.817Z,19.23
2022-08-02T02:33:01.806Z,19.18
2022-08-02T02:36:01.023Z,19.14
2022-08-02T02:38:57.810Z,19.06
2022-08-02T02:41:54.945Z,19.02
2022-08-02T02:44:51.951Z,18.98
2022-08-02T02:47:51.769Z,18.93
2022-08-02T02:50:49.119Z,18.95
2022-08-02T02:54:33.739Z,18.98
2022-08-02T02:57:04.634Z,18.97
2022-08-02T03:00:01.681Z,18.89
2022-08-02T03:02:58.825Z,18.87
2022-08-02T03:05:59.393Z,18.86
2022-08-02T03:09:15.009Z,18.89
2022-08-02T03:12:20.057Z,18.89
2022-08-02T03:15:14.918Z,18.96
2022-08-02T03:18:11.668Z,18.97
2022-08-02T03:21:12.167Z,18.97
2022-08-02T03:24:09.881Z,19.01
2022-08-02T03:27:06.636Z,19.01
2022-08-02T03:30:03.813Z,19.03
2022-08-02T03:33:00.835Z,19.03
2022-08-02T03:35:58.104Z,19.02
2022-08-02T03:38:55.871Z,18.98
2022-08-02T03:41:53.174Z,19.01
2022-08-02T03:44:50.833Z,19.00
2022-08-02T03:47:47.768Z,19.03
2022-08-02T03:50:44.822Z,19.05
2022-08-02T03:53:41.715Z,19.05
2022-08-02T03:56:38.659Z,19.06
2022-08-02T03:59:35.749Z,19.06
2022-08-02T04:02:37.546Z,19.04
2022-08-02T04:05:34.819Z,19.09
2022-08-02T04:08:53.451Z,19.12
2022-08-02T04:11:50.641Z,19.11
2022-08-02T04:14:48.013Z,19.12
2022-08-02T04:17:48.813Z,19.13
2022-08-02T04:20:45.977Z,19.11
2022-08-02T04:23:42.804Z,19.08
2022-08-02T04:26:40.896Z,19.08
2022-08-02T04:29:46.987Z,19.04
2022-08-02T04:32:44.752Z,18.98
2022-08-02T04:35:44.840Z,19.00
2022-08-02T04:38:42.867Z,19.03
2022-08-02T04:41:43.985Z,19.05
2022-08-02T04:44:41.976Z,19.07
2022-08-02T04:48:02.174Z,19.07
2022-08-02T04:50:59.986Z,19.05
2022-08-02T04:54:06.203Z,19.10
2022-08-02T04:57:27.885Z,19.11
2022-08-02T05:00:24.921Z,19.09
2022-08-02T05:03:22.638Z,19.14
2022-08-02T05:06:20.123Z,19.21
2022-08-02T05:09:17.774Z,19.21
2022-08-02T05:12:14.543Z,19.28
2022-08-02T05:15:12.866Z,19.29
2022-08-02T05:18:10.603Z,19.32
2022-08-02T05:21:08.608Z,19.32
2022-08-02T05:24:05.779Z,19.32
2022-08-02T05:27:02.776Z,19.33
2022-08-02T05:30:18.558Z,19.38
2022-08-02T05:33:18.695Z,19.38
2022-08-02T05:36:15.832Z,19.44
2022-08-02T05:39:18.589Z,19.45
2022-08-02T05:42:16.539Z,19.53
2022-08-02T05:45:13.675Z,19.56
2022-08-02T05:48:13.506Z,19.56
2022-08-02T05:51:10.572Z,19.56
2022-08-02T05:54:07.582Z,19.56
2022-08-02T05:57:04.735Z,19.63
2022-08-02T06:00:02.992Z,19.63
2022-08-02T06:03:00.858Z,19.68
2022-08-02T06:05:56.806Z,19.71
2022-08-02T06:08:57.763Z,19.69
2022-08-02T06:12:01.307Z,19.74
2022-08-02T06:14:54.621Z,19.70
2022-08-02T06:17:45.520Z,19.72
2022-08-02T06:20:43.834Z,19.75
2022-08-02T06:23:40.852Z,19.77
2022-08-02T06:26:58.068Z,19.81
2022-08-02T06:29:54.451Z,19.84
2022-08-02T06:32:42.394Z,19.84
2022-08-02T06:35:45.575Z,19.85
2022-08-02T06:38:42.876Z,19.86
2022-08-02T06:41:47.658Z,19.92
2022-08-02T06:44:48.989Z,19.96
2022-08-02T06:47:39.502Z,19.95
2022-08-02T06:50:38.596Z,20.03
2022-08-02T06:53:35.761Z,20.09
2022-08-02T06:56:35.063Z,20.16
2022-08-02T06:59:42.624Z,20.19
2022-08-02T07:02:26.100Z,20.33
2022-08-02T07:05:09.645Z,20.39
2022-08-02T07:07:52.677Z,20.46
2022-08-02T07:10:49.614Z,20.51
2022-08-02T07:13:40.617Z,20.52
2022-08-02T07:16:37.734Z,20.59
2022-08-02T07:19:38.097Z,20.60
2022-08-02T07:22:35.535Z,20.65
2022-08-02T07:26:02.680Z,20.71
2022-08-02T07:28:59.006Z,20.77
2022-08-02T07:31:56.965Z,20.83
2022-08-02T07:34:55.346Z,20.94
2022-08-02T07:37:55.339Z,21.06
2022-08-02T07:40:58.696Z,21.15
2022-08-02T07:43:55.456Z,21.20
2022-08-02T07:46:46.567Z,21.20
2022-08-02T07:49:45.607Z,21.17
2022-08-02T07:52:42.421Z,21.15
2022-08-02T07:55:39.303Z,21.25
2022-08-02T07:58:49.997Z,21.39
2022-08-02T08:01:57.572Z,21.45
2022-08-02T08:04:54.644Z,21.50
2022-08-02T08:07:38.459Z,21.66
2022-08-02T08:10:26.591Z,21.82
2022-08-02T08:13:23.524Z,22.01
2022-08-02T08:16:20.609Z,22.19
2022-08-02T08:19:16.562Z,22.31
2022-08-02T08:22:14.814Z,22.35
2022-08-02T08:25:05.754Z,22.42
2022-08-02T08:28:04.617Z,22.58
2022-08-02T08:31:02.594Z,22.59
2022-08-02T08:33:59.593Z,22.62
2022-08-02T08:36:59.560Z,22.67
2022-08-02T08:39:58.904Z,22.69
2022-08-02T08:42:56.447Z,22.85
2022-08-02T08:45:55.971Z,23.00
2022-08-02T08:48:53.344Z,23.16
2022-08-02T08:52:01.501Z,23.27
2022-08-02T08:55:01.498Z,23.40
2022-08-02T08:57:54.602Z,23.53
2022-08-02T09:00:59.600Z,23.63
2022-08-02T09:04:01.453Z,23.73
2022-08-02T09:06:58.619Z,23.79
2022-08-02T09:10:01.343Z,23.89
2022-08-02T09:13:31.190Z,23.96
2022-08-02T09:16:39.645Z,24.14
2022-08-02T09:19:53.464Z,24.26
2022-08-02T09:22:55.813Z,24.39
2022-08-02T09:29:07.363Z,24.61
2022-08-02T09:32:05.093Z,24.71
2022-08-02T09:35:04.559Z,24.84
2022-08-02T09:38:07.820Z,24.93
2022-08-02T09:44:59.364Z,25.29
2022-08-02T09:47:58.755Z,25.36
2022-08-02T09:50:59.705Z,25.52
2022-08-02T09:54:09.413Z,25.60
2022-08-02T09:57:01.705Z,25.70
2022-08-02T10:00:50.829Z,25.63
2022-08-02T10:03:48.474Z,25.79
2022-08-02T10:06:49.577Z,25.85
2022-08-02T10:09:54.366Z,26.00
2022-08-02T10:12:51.812Z,26.16
2022-08-02T10:15:50.420Z,26.33
2022-08-02T10:18:41.790Z,26.47
2022-08-02T10:21:46.818Z,26.55
2022-08-02T10:24:48.291Z,26.61
2022-08-02T10:28:04.851Z,26.67
2022-08-02T10:31:07.084Z,26.80
2022-08-02T10:34:06.578Z,26.94
2022-08-02T10:37:06.349Z,27.06
2022-08-02T10:39:50.908Z,27.21
2022-08-02T10:42:50.575Z,27.34
2022-08-02T10:45:45.762Z,27.45
2022-08-02T10:48:48.506Z,27.39
2022-08-02T10:52:01.350Z,27.30
2022-08-02T10:54:58.457Z,27.28
2022-08-02T10:57:50.059Z,27.23
2022-08-02T11:00:40.538Z,27.29
2022-08-02T11:03:46.021Z,27.39
2022-08-02T11:06:46.509Z,27.59
2022-08-02T11:09:48.239Z,27.74
2022-08-02T11:12:45.812Z,27.80
2022-08-02T11:15:43.495Z,27.63
2022-08-02T11:18:45.676Z,27.27
2022-08-02T11:21:47.926Z,26.91
2022-08-02T11:24:48.976Z,26.69
2022-08-02T11:27:48.442Z,26.57
2022-08-02T11:30:47.477Z,26.46
2022-08-02T11:33:53.615Z,26.33
2022-08-02T11:36:53.698Z,26.24
2022-08-02T11:39:54.444Z,26.35
2022-08-02T11:42:44.384Z,26.42
2022-08-02T11:45:44.891Z,26.36
2022-08-02T11:48:44.904Z,26.40
2022-08-02T11:51:36.270Z,26.30
2022-08-02T11:54:36.335Z,26.18
2022-08-02T11:57:59.486Z,26.05
2022-08-02T12:00:50.346Z,25.89
2022-08-02T12:03:47.252Z,25.84
2022-08-02T12:06:48.607Z,25.83
2022-08-02T12:09:46.307Z,26.06
2022-08-02T12:12:43.421Z,26.12
2022-08-02T12:15:42.072Z,26.33
2022-08-02T12:18:49.804Z,26.55
2022-08-02T12:21:47.688Z,26.76
2022-08-02T12:24:45.413Z,26.92
2022-08-02T12:27:43.937Z,27.07
2022-08-02T12:30:41.240Z,27.18
2022-08-02T12:33:39.511Z,27.27
2022-08-02T12:36:36.122Z,27.41
2022-08-02T12:39:34.389Z,27.51
2022-08-02T12:42:31.253Z,27.45
2022-08-02T12:45:38.380Z,27.32
2022-08-02T12:48:48.386Z,27.22
2022-08-02T12:52:02.262Z,27.31
2022-08-02T12:55:02.482Z,27.44
2022-08-02T12:57:58.852Z,27.47
2022-08-02T13:01:01.121Z,27.34
2022-08-02T13:04:10.696Z,27.37
2022-08-02T13:07:13.531Z,27.37
2022-08-02T13:10:14.855Z,27.42
2022-08-02T13:13:00.301Z,27.44
2022-08-02T13:16:01.081Z,27.50
2022-08-02T13:18:58.948Z,27.54
2022-08-02T13:22:01.026Z,27.55
2022-08-02T13:25:02.540Z,27.41
2022-08-02T13:27:58.453Z,27.27
2022-08-02T13:30:47.841Z,27.16
2022-08-02T13:33:29.776Z,27.02
2022-08-02T13:36:32.234Z,26.99
2022-08-02T13:39:23.303Z,26.96
2022-08-02T13:42:20.159Z,26.91
2022-08-02T13:45:14.791Z,26.84
2022-08-02T13:48:10.697Z,26.81
2022-08-02T13:50:56.233Z,26.73
2022-08-02T13:53:46.307Z,26.70
2022-08-02T13:56:35.172Z,26.55
2022-08-02T13:59:56.787Z,26.46
2022-08-02T14:02:45.691Z,26.41
2022-08-02T14:05:46.941Z,26.24
2022-08-02T14:08:29.199Z,26.15
2022-08-02T14:11:16.237Z,26.07
2022-08-02T14:14:01.437Z,26.02
2022-08-02T14:17:04.305Z,26.00
2022-08-02T14:19:53.159Z,25.99
2022-08-02T14:22:35.243Z,25.98
2022-08-02T14:25:10.924Z,25.92
2022-08-02T14:27:57.093Z,25.90
2022-08-02T14:30:28.544Z,25.93
2022-08-02T14:33:01.278Z,25.93
2022-08-02T14:35:42.204Z,25.97
2022-08-02T14:38:31.207Z,25.98
2022-08-02T14:41:15.179Z,26.00
2022-08-02T14:44:06.441Z,26.01
2022-08-02T14:46:42.139Z,26.05
2022-08-02T14:49:14.240Z,26.07
2022-08-02T14:54:58.828Z,26.07
2022-08-02T14:57:58.221Z,26.05
2022-08-02T15:00:40.553Z,25.99
2022-08-02T15:03:19.211Z,25.99
2022-08-02T15:06:18.105Z,25.91
2022-08-02T15:09:15.216Z,25.86
2022-08-02T15:12:05.253Z,25.82
2022-08-02T15:14:42.909Z,25.74
2022-08-02T15:17:17.805Z,25.70
2022-08-02T15:19:57.609Z,25.66
2022-08-02T15:22:35.473Z,25.61
2022-08-02T15:25:30.247Z,25.56
2022-08-02T15:28:15.202Z,25.54
2022-08-02T15:31:00.359Z,25.53
2022-08-02T15:33:52.164Z,25.50
2022-08-02T15:36:40.128Z,25.47
2022-08-02T15:39:37.314Z,25.45
2022-08-02T15:42:30.200Z,25.41
2022-08-02T15:45:13.072Z,25.39
2022-08-02T15:48:06.304Z,25.40
2022-08-02T15:50:45.571Z,25.38
2022-08-02T15:53:20.721Z,25.37
2022-08-02T15:56:05.663Z,25.41
2022-08-02T15:58:44.243Z,25.43
2022-08-02T16:01:18.115Z,25.44
2022-08-02T16:03:48.697Z,25.46
2022-08-02T16:06:19.535Z,25.47
2022-08-02T16:08:53.695Z,25.49
2022-08-02T16:11:25.462Z,25.50
2022-08-02T16:13:56.331Z,25.49
2022-08-02T16:16:32.204Z,25.47
2022-08-02T16:19:47.159Z,25.46
2022-08-02T16:21:56.981Z,25.45
2022-08-02T16:24:28.009Z,25.42
2022-08-02T16:26:58.659Z,25.39
2022-08-02T16:29:44.056Z,25.34
2022-08-02T16:32:41.157Z,25.27
2022-08-02T16:35:47.456Z,25.26
2022-08-02T16:38:44.233Z,25.21
2022-08-02T16:41:50.800Z,25.17
2022-08-02T16:44:58.118Z,25.10
2022-08-02T16:47:56.503Z,25.10
2022-08-02T16:50:49.476Z,25.06
2022-08-02T16:53:59.983Z,25.02
2022-08-02T16:57:15.277Z,25.00
2022-08-02T17:00:24.285Z,24.93
2022-08-02T17:03:55.684Z,24.88
2022-08-02T17:06:47.711Z,24.85
2022-08-02T17:10:01.894Z,24.84
2022-08-02T17:13:11.469Z,24.82
2022-08-02T17:16:17.128Z,24.78
2022-08-02T17:19:14.232Z,24.78
2022-08-02T17:22:04.108Z,24.75
2022-08-02T17:24:59.366Z,24.73
2022-08-02T17:27:56.201Z,24.68
2022-08-02T17:30:53.386Z,24.64
2022-08-02T17:34:01.052Z,24.57
2022-08-02T17:36:58.139Z,24.52
2022-08-02T17:39:55.208Z,24.47
2022-08-02T17:42:51.140Z,24.41
2022-08-02T17:46:00.244Z,24.33
2022-08-02T17:49:10.740Z,24.27
2022-08-02T17:52:48.808Z,24.17
2022-08-02T17:55:31.082Z,24.07
2022-08-02T17:58:33.450Z,23.98
2022-08-02T18:05:53.205Z,23.83
2022-08-02T18:09:22.646Z,23.75
2022-08-02T18:13:14.093Z,23.73
2022-08-02T18:17:26.365Z,23.71
2022-08-02T18:20:46.394Z,23.63
2022-08-02T18:24:02.415Z,23.62
2022-08-02T18:27:21.101Z,23.56
2022-08-02T18:30:35.870Z,23.53
2022-08-02T18:34:00.468Z,23.51
2022-08-02T18:37:17.637Z,23.48
2022-08-02T18:41:12.480Z,23.42
2022-08-02T18:44:56.214Z,23.44
2022-08-02T18:48:17.470Z,23.41
2022-08-02T18:54:55.787Z,23.32
2022-08-02T18:58:20.242Z,23.26
2022-08-02T19:01:31.427Z,23.20
2022-08-02T19:04:27.321Z,23.15
2022-08-02T19:12:45.385Z,23.06
2022-08-02T19:15:31.153Z,23.02
2022-08-02T19:18:06.320Z,22.98
2022-08-02T19:20:39.905Z,22.95
2022-08-02T19:24:13.796Z,22.93
2022-08-02T19:28:34.787Z,22.88
2022-08-02T19:31:23.097Z,22.81
2022-08-02T19:34:08.151Z,22.77
2022-08-02T19:36:47.009Z,22.73
2022-08-02T19:39:31.286Z,22.67
2022-08-02T19:42:18.510Z,22.63
2022-08-02T19:49:39.177Z,22.51
2022-08-02T19:52:21.268Z,22.48
2022-08-02T19:54:55.231Z,22.44
2022-08-02T19:57:34.481Z,22.42
2022-08-02T20:05:24.073Z,22.35
2022-08-02T20:08:31.878Z,22.30
2022-08-02T20:11:06.377Z,22.28
2022-08-02T20:23:32.880Z,22.13
2022-08-02T20:27:34.649Z,22.05
2022-08-02T20:34:16.749Z,21.92
2022-08-02T20:36:54.025Z,21.87
2022-08-02T20:39:43.758Z,21.83
2022-08-02T20:42:22.557Z,21.79
2022-08-02T20:44:55.549Z,21.77
2022-08-02T20:51:58.005Z,21.70
2022-08-02T20:54:28.740Z,21.66
2022-08-02T20:56:59.176Z,21.65
2022-08-02T21:00:52.438Z,21.62
2022-08-02T21:03:23.276Z,21.58
2022-08-02T21:05:56.480Z,21.53
2022-08-02T21:08:28.369Z,21.49
2022-08-02T21:11:25.475Z,21.45
2022-08-02T21:16:53.827Z,21.37
2022-08-02T21:19:24.205Z,21.33
2022-08-02T21:21:54.736Z,21.30
2022-08-02T21:24:27.151Z,21.28
2022-08-02T21:26:57.569Z,21.25
2022-08-02T21:29:55.937Z,21.23
2022-08-02T21:32:26.562Z,21.20
2022-08-02T21:34:57.177Z,21.17
2022-08-02T21:37:33.040Z,21.14
2022-08-02T21:40:05.030Z,21.10
2022-08-02T21:42:35.517Z,21.07
2022-08-02T21:45:16.809Z,21.04
2022-08-02T21:47:47.925Z,21.02
2022-08-02T21:50:18.691Z,21.00
2022-08-02T21:52:52.010Z,20.96
2022-08-02T21:59:55.489Z,20.78
2022-08-02T22:02:30.632Z,20.73
2022-08-02T22:05:02.649Z,20.69
2022-08-02T22:07:38.307Z,20.66
2022-08-02T22:10:10.790Z,20.62
2022-08-02T22:12:41.371Z,20.60
2022-08-02T22:15:12.358Z,20.58
2022-08-02T22:18:21.281Z,20.55
2022-08-02T22:21:00.276Z,20.52
2022-08-02T22:23:38.795Z,20.49
2022-08-02T22:26:21.258Z,20.45
2022-08-02T22:28:59.600Z,20.42
2022-08-02T22:31:40.823Z,20.39
2022-08-02T22:34:37.120Z,20.35
2022-08-02T22:37:07.411Z,20.32
2022-08-02T22:40:06.081Z,20.30
2022-08-02T22:42:42.525Z,20.26
2022-08-02T22:45:14.232Z,20.23
2022-08-02T22:47:51.099Z,20.21
2022-08-02T22:50:21.856Z,20.17
2022-08-02T22:52:54.657Z,20.13
2022-08-02T22:55:25.266Z,20.08
2022-08-02T22:58:23.305Z,20.05
2022-08-02T22:59:02.194Z,21.40
2022-08-02T23:00:53.913Z,20.02
2022-08-02T23:03:24.551Z,19.98
2022-08-02T23:05:55.073Z,19.95
2022-08-02T23:08:56.793Z,19.91
2022-08-02T23:11:27.406Z,19.88
2022-08-02T23:13:57.841Z,19.84
2022-08-02T23:16:46.165Z,19.79
2022-08-02T23:19:43.169Z,19.73
2022-08-02T23:22:15.620Z,19.67
2022-08-02T23:24:47.319Z,19.62
2022-08-02T23:27:21.577Z,19.58
2022-08-02T23:29:51.826Z,19.52
2022-08-02T23:32:22.795Z,19.48
2022-08-02T23:39:16.597Z,19.39
2022-08-02T23:41:54.623Z,19.34
2022-08-02T23:44:26.535Z,19.26
2022-08-02T23:46:58.486Z,19.18
2022-08-02T23:50:14.583Z,19.12
2022-08-02T23:52:45.145Z,19.01
2022-08-02T23:55:15.553Z,18.96
2022-08-02T23:57:46.196Z,18.94
